Orsa Maggiore — IAOM — position and weather

sailwx.info

Track history (hours):
 
Tides and Currents Weather Stations Pressure Air Temp Water Temp Dewpoint Dewpoint Depression Visibility Wind Speed Wind Dir Waves Ship Positions

Orsa Maggiore

Last reported at 2017-Oct-21 17:41 UTC. Time now 2017-Nov-19 03:05 UTC.
Position N 44°06' E 009°49'.
Warning: this ship's position is 28 days out of date.

Length 28 m.

Type: Sailing vessel. MMSI: 247938000.

Date/timePositionNaut miles runAvg speedWind from/ knotsBaromVisibWave heightAir tempDewpointWater temp
2017-Oct-21 17:41N 44°06' E 009°49'0 0.0
2017-Oct-21 17:29N 44°06' E 009°49'0 0.9
2017-Oct-21 17:01N 44°06' E 009°49'4 8.6
2017-Oct-21 16:30N 44°02' E 009°53'4 9.1
2017-Oct-21 16:01N 43°58' E 009°55'5 9.0
2017-Oct-21 15:29N 43°54' E 009°58'4 8.9
2017-Oct-21 15:01N 43°50' E 010°00'9 8.6
2017-Oct-21 14:00N 43°41' E 010°04'4 8.5
2017-Oct-21 13:30N 43°38' E 010°06'4 9.0
2017-Oct-21 13:00N 43°33' E 010°09'5 9.2
2017-Oct-21 12:30N 43°29' E 010°11'5 9.2
2017-Oct-21 12:00N 43°25' E 010°12'5 9.4
2017-Oct-21 11:30N 43°20' E 010°14'5 9.3
2017-Oct-21 11:00N 43°16' E 010°17'5 9.3
2017-Oct-21 10:30N 43°11' E 010°19'213 8.9
2017-Oct-20 10:33N 40°42' E 013°43'141 8.7
2017-Oct-19 18:23N 38°40' E 015°15'20 8.9
2017-Oct-19 16:10N 38°25' E 015°32'2 8.3
2017-Oct-19 15:55N 38°24' E 015°33'4 8.3
2017-Oct-19 15:28N 38°21' E 015°36'103 6.0
2017-Oct-18 22:08N 39°12' E 017°32'3 8.1
2017-Oct-18 21:47N 39°14' E 017°35'2 8.3
2017-Oct-18 21:31N 39°15' E 017°37'4 8.3
2017-Oct-18 20:58N 39°18' E 017°41'4 8.6
2017-Oct-18 20:31N 39°21' E 017°45'5 9.0
2017-Oct-18 20:00N 39°24' E 017°49'4 8.9
2017-Oct-18 19:30N 39°27' E 017°54'7 8.8
2017-Oct-18 18:46N 39°31' E 018°00'3 8.5
2017-Oct-18 18:21N 39°33' E 018°03'3 8.4
2017-Oct-18 18:00N 39°36' E 018°06'4 8.5
2017-Oct-18 17:31N 39°39' E 018°10'4 8.7
2017-Oct-18 17:00N 39°42' E 018°14'4 8.6
2017-Oct-18 16:30N 39°45' E 018°18'  
Track history (hours):
 
Tides and Currents Weather Stations Pressure Air Temp Water Temp Dewpoint Dewpoint Depression Visibility Wind Speed Wind Dir Waves Ship Positions

Orsa Maggiore

Last reported at 2017-Oct-21 17:41 UTC. Time now 2017-Nov-19 03:05 UTC.
Position N 44°06' E 009°49'.
Warning: this ship's position is 28 days out of date.

Length 28 m.

Type: Sailing vessel. MMSI: 247938000.

Date/timePositionNaut miles runAvg speedWind from/ knotsBaromVisibWave heightAir tempDewpointWater temp
2017-Oct-21 17:41N 44°06' E 009°49'0 0.0
2017-Oct-21 17:29N 44°06' E 009°49'0 0.9
2017-Oct-21 17:01N 44°06' E 009°49'4 8.6
2017-Oct-21 16:30N 44°02' E 009°53'4 9.1
2017-Oct-21 16:01N 43°58' E 009°55'5 9.0
2017-Oct-21 15:29N 43°54' E 009°58'4 8.9
2017-Oct-21 15:01N 43°50' E 010°00'9 8.6
2017-Oct-21 14:00N 43°41' E 010°04'4 8.5
2017-Oct-21 13:30N 43°38' E 010°06'4 9.0
2017-Oct-21 13:00N 43°33' E 010°09'5 9.2
2017-Oct-21 12:30N 43°29' E 010°11'5 9.2
2017-Oct-21 12:00N 43°25' E 010°12'5 9.4
2017-Oct-21 11:30N 43°20' E 010°14'5 9.3
2017-Oct-21 11:00N 43°16' E 010°17'5 9.3
2017-Oct-21 10:30N 43°11' E 010°19'213 8.9
2017-Oct-20 10:33N 40°42' E 013°43'141 8.7
2017-Oct-19 18:23N 38°40' E 015°15'20 8.9
2017-Oct-19 16:10N 38°25' E 015°32'2 8.3
2017-Oct-19 15:55N 38°24' E 015°33'4 8.3
2017-Oct-19 15:28N 38°21' E 015°36'103 6.0
2017-Oct-18 22:08N 39°12' E 017°32'3 8.1
2017-Oct-18 21:47N 39°14' E 017°35'2 8.3
2017-Oct-18 21:31N 39°15' E 017°37'4 8.3
2017-Oct-18 20:58N 39°18' E 017°41'4 8.6
2017-Oct-18 20:31N 39°21' E 017°45'5 9.0
2017-Oct-18 20:00N 39°24' E 017°49'4 8.9
2017-Oct-18 19:30N 39°27' E 017°54'7 8.8
2017-Oct-18 18:46N 39°31' E 018°00'3 8.5
2017-Oct-18 18:21N 39°33' E 018°03'3 8.4
2017-Oct-18 18:00N 39°36' E 018°06'4 8.5
2017-Oct-18 17:31N 39°39' E 018°10'4 8.7
2017-Oct-18 17:00N 39°42' E 018°14'4 8.6
2017-Oct-18 16:30N 39°45' E 018°18'  

Dump ship's entire track history